• Join FlightAware (Why Join?)
  • Login
  • US Flag 
01:20AM EDT


 

Airport Tracker/Info


-or-


 

Live Flight TrackerFlight Track Log ✈ CPT7773 ✈ 10-Jan-2014 ✈ KCOD - KCPR

Flight Track Log - Related Links

Times and Time Zones

All times are in EST time to prevent confusion due to time zone crossing. See the CPT7773 flight status page for this flight to view local times or setup timezone preferences in your user account.

Time Position Orientation Groundspeed Altitude Reporting Facility
EST Latitude Longitude Course Direction KTS MPH feet Rate Location/Type
07:56PM 44.4639 -108.9464 133° Southeast 136 157 8,000  Level Salt Lake Center
07:58PM 44.4319 -108.8958 131° Southeast 141 162 9,200 1,020 Climbing Salt Lake Center
07:59PM 44.4044 -108.8514 131° Southeast 145 167 10,100 840 Climbing Salt Lake Center
08:00PM 44.3758 -108.8025 129° Southeast 152 175 11,000 480 Climbing Salt Lake Center
08:01PM 44.3422 -108.7478 131° Southeast 165 190 11,200 540 Climbing Salt Lake Center
08:02PM 44.3403 -108.7266 133° Southeast  Level Estimated
08:02PM 44.3069 -108.6947 133° Southeast 177 204 12,200  Level Salt Lake Center
08:03PM 44.2761 -108.6425 129° Southeast 179 206 13,000 360 Climbing Salt Lake Center
08:04PM 44.2372 -108.5753 129° Southeast 181 208 13,000  Level Salt Lake Center
08:05PM 44.2000 -108.5178 132° Southeast 189 217 13,000  Level Salt Lake Center
08:06PM 44.1633 -108.4569 130° Southeast 196 226 13,000  Level Salt Lake Center
08:07PM 44.1264 -108.3936 129° Southeast 203 234 13,000  Level Salt Lake Center
08:08PM 44.0903 -108.3333 130° Southeast 205 236 13,000  Level Salt Lake Center
08:09PM 44.0539 -108.2731 130° Southeast 205 236 13,000  Level Salt Lake Center
08:10PM 44.0167 -108.2144 131° Southeast 204 235 13,000  Level Salt Lake Center
08:11PM 43.9725 -108.1433 131° Southeast 203 234 13,000  Level Salt Lake Center
08:12PM 43.9356 -108.0836 131° Southeast 204 235 13,000  Level Salt Lake Center
08:13PM 43.9006 -108.0256 130° Southeast 202 232 13,000  Level Salt Lake Center
08:14PM 43.8639 -107.9675 131° Southeast 201 231 13,000  Level Salt Lake Center
08:15PM 43.8275 -107.9094 131° Southeast 201 231 13,000  Level Salt Lake Center
08:16PM 43.7908 -107.8522 132° Southeast 200 230 13,000  Level Salt Lake Center
08:17PM 43.7478 -107.7814 130° Southeast 200 230 13,000  Level Salt Lake Center
08:18PM 43.7106 -107.7231 131° Southeast 202 232 13,000  Level Salt Lake Center
08:19PM 43.6750 -107.6647 130° Southeast 200 230 13,000  Level Salt Lake Center
08:20PM 43.6378 -107.6083 132° Southeast 201 231 13,000  Level Salt Lake Center
08:21PM 43.6000 -107.5486 131° Southeast 203 234 13,000  Level Salt Lake Center
08:22PM 43.5622 -107.4892 131° Southeast 205 236 13,000  Level Salt Lake Center
08:23PM 43.5242 -107.4308 132° Southeast 205 236 13,000  Level Salt Lake Center
08:24PM 43.4803 -107.3586 130° Southeast 204 235 13,000  Level Salt Lake Center
08:25PM 43.4433 -107.2981 130° Southeast 206 237 13,000  Level Salt Lake Center
08:26PM 43.4031 -107.2375 132° Southeast 212 244 13,000  Level Salt Lake Center
08:27PM 43.3669 -107.1792 130° Southeast 205 236 13,000  Level Salt Lake Center
08:28PM 43.3308 -107.1225 131° Southeast 200 230 13,000  Level Salt Lake Center
08:29PM 43.2911 -107.0664 134° Southeast 203 234 13,000  Level Salt Lake Center
08:30PM 43.2550 -107.0086 131° Southeast 202 232 13,000  Level Salt Lake Center
08:31PM 43.2117 -106.9403 131° Southeast 199 229 13,000  Level Salt Lake Center
08:32PM 43.1761 -106.8847 131° Southeast 197 227 13,000 -240 Level Salt Lake Center
08:34PM 43.1436 -106.8292 129° Southeast 195 224 12,600 -780 Descending Salt Lake Center
08:35PM 43.0997 -106.7672 134° Southeast 200 230 11,500 -1,080 Descending Salt Lake Center
08:36PM 43.0667 -106.7094 128° Southeast 202 232 10,500 -1,020 Descending Salt Lake Center
08:37PM 43.0311 -106.6381 124° Southeast 202 232 9,500 -900 Descending Salt Lake Center
08:38PM 42.9997 -106.5753 124° Southeast 206 237 8,700 -1,080 Descending Salt Lake Center
08:39PM 42.9697 -106.5200 127° Southeast 199 229 7,300 -1,020 Descending Salt Lake Center
08:40PM 42.9375 -106.4631 128° Southeast 190 219 6,700 -600 Descending Salt Lake Center
08:42PM 42.9080 -106.4644 124° Southeast  Level Estimated